createdAt,value
2022-11-25T00:00:03.393Z,50.31
2022-11-25T00:01:03.436Z,44.93
2022-11-25T00:02:03.448Z,44.81
2022-11-25T00:03:03.470Z,54.29
2022-11-25T00:04:03.367Z,55.25
2022-11-25T00:05:03.432Z,45.42
2022-11-25T00:06:03.348Z,52.48
2022-11-25T00:07:03.334Z,58.64
2022-11-25T00:08:03.369Z,49.05
2022-11-25T00:09:03.379Z,49.41
2022-11-25T00:10:03.325Z,56.56
2022-11-25T00:11:03.297Z,55.75
2022-11-25T00:12:03.329Z,45.09
2022-11-25T00:13:03.304Z,45.50
2022-11-25T00:14:03.450Z,45.17
2022-11-25T00:15:03.276Z,50.17
2022-11-25T00:16:04.125Z,42.94
2022-11-25T00:17:03.347Z,43.30
2022-11-25T00:18:03.271Z,42.76
2022-11-25T00:19:04.263Z,44.33
2022-11-25T00:20:03.196Z,44.91
2022-11-25T00:21:03.188Z,42.89
2022-11-25T00:22:03.291Z,56.74
2022-11-25T00:23:35.058Z,43.59
2022-11-25T00:24:03.260Z,46.84
2022-11-25T00:25:03.203Z,54.41
2022-11-25T00:26:03.165Z,57.63
2022-11-25T00:27:03.127Z,52.74
2022-11-25T00:28:03.147Z,44.29
2022-11-25T00:29:03.129Z,50.42
2022-11-25T00:30:03.097Z,53.92
2022-11-25T00:31:03.097Z,46.42
2022-11-25T00:32:03.201Z,56.26
2022-11-25T00:33:03.096Z,43.40
2022-11-25T00:34:03.107Z,51.61
2022-11-25T00:35:03.055Z,46.68
2022-11-25T00:36:03.166Z,47.21
2022-11-25T00:37:03.081Z,43.67
2022-11-25T00:38:03.034Z,43.66
2022-11-25T00:39:03.013Z,55.31
2022-11-25T00:40:03.036Z,52.53
2022-11-25T00:41:03.048Z,57.93
2022-11-25T00:42:03.069Z,46.29
2022-11-25T00:43:03.021Z,52.41
2022-11-25T00:44:02.996Z,46.11
2022-11-25T00:45:03.024Z,44.67
2022-11-25T00:46:03.085Z,50.02
2022-11-25T00:47:02.984Z,53.47
2022-11-25T00:48:02.955Z,49.28
2022-11-25T00:49:02.941Z,43.44
2022-11-25T00:50:03.084Z,43.45
2022-11-25T00:51:02.956Z,43.05
2022-11-25T00:52:02.995Z,50.30
2022-11-25T00:53:02.962Z,49.03
2022-11-25T00:54:02.918Z,44.41
2022-11-25T00:55:02.912Z,43.37
2022-11-25T00:56:02.913Z,43.30
2022-11-25T00:57:02.890Z,53.28
2022-11-25T00:58:02.895Z,42.85
2022-11-25T00:59:02.894Z,43.01
2022-11-25T01:00:02.897Z,49.27
2022-11-25T01:01:02.962Z,42.46
2022-11-25T01:02:02.951Z,58.19
2022-11-25T01:03:34.763Z,49.93
2022-11-25T01:04:02.857Z,43.70
2022-11-25T01:05:03.893Z,50.38
2022-11-25T01:06:02.816Z,45.10
2022-11-25T01:07:02.795Z,58.83
2022-11-25T01:08:02.791Z,44.73
2022-11-25T01:09:02.910Z,53.67
2022-11-25T01:10:02.809Z,58.75
2022-11-25T01:11:02.817Z,50.85
2022-11-25T01:12:02.777Z,55.70
2022-11-25T01:13:02.759Z,55.57
2022-11-25T01:14:02.766Z,56.76
2022-11-25T01:15:02.763Z,54.94
2022-11-25T01:16:02.814Z,44.61
2022-11-25T01:17:02.737Z,51.77
2022-11-25T01:18:02.746Z,56.62
2022-11-25T01:19:02.792Z,51.83
2022-11-25T01:20:02.728Z,55.50
2022-11-25T01:21:02.727Z,48.59
2022-11-25T01:22:02.723Z,53.43
2022-11-25T01:23:02.698Z,50.47
2022-11-25T01:24:02.772Z,50.34
2022-11-25T01:25:02.699Z,52.37
2022-11-25T01:26:02.651Z,46.21
2022-11-25T01:27:02.668Z,50.67
2022-11-25T01:28:02.669Z,59.68
2022-11-25T01:29:02.640Z,56.04
2022-11-25T01:30:02.634Z,43.43
2022-11-25T01:31:02.611Z,48.85
2022-11-25T01:32:02.720Z,43.90
2022-11-25T01:33:02.602Z,43.30
2022-11-25T01:34:02.613Z,43.35
2022-11-25T01:35:02.592Z,51.23
2022-11-25T01:36:02.579Z,43.58
2022-11-25T01:37:02.589Z,49.16
2022-11-25T01:38:02.585Z,43.03
2022-11-25T01:39:02.603Z,43.33
2022-11-25T01:40:02.563Z,53.57
2022-11-25T01:41:02.554Z,49.93
2022-11-25T01:42:02.585Z,56.44
2022-11-25T01:43:02.560Z,49.24
2022-11-25T01:44:02.526Z,45.91
2022-11-25T01:45:02.546Z,45.76
2022-11-25T01:46:02.560Z,49.27
2022-11-25T01:47:02.496Z,51.55
2022-11-25T01:48:02.508Z,49.62
2022-11-25T01:49:02.495Z,44.65
2022-11-25T01:50:02.579Z,45.30
2022-11-25T01:51:02.465Z,51.70
2022-11-25T01:52:02.468Z,45.42
2022-11-25T01:53:02.473Z,43.66
2022-11-25T01:54:02.440Z,54.86
2022-11-25T01:55:02.435Z,52.72
2022-11-25T01:56:02.451Z,50.95
2022-11-25T01:57:02.501Z,45.21
2022-11-25T01:58:02.429Z,48.86
2022-11-25T01:59:02.458Z,49.14
2022-11-25T02:00:02.427Z,48.01
2022-11-25T02:01:02.418Z,50.83
2022-11-25T02:02:02.439Z,57.08
2022-11-25T02:03:02.386Z,44.38
2022-11-25T02:04:02.359Z,45.53
2022-11-25T02:05:02.384Z,49.86
2022-11-25T02:06:02.359Z,50.49
2022-11-25T02:07:02.330Z,48.42
2022-11-25T02:08:02.331Z,46.42
2022-11-25T02:09:02.360Z,45.61
2022-11-25T02:10:02.367Z,47.22
2022-11-25T02:11:02.337Z,43.46
2022-11-25T02:12:02.323Z,46.36
2022-11-25T02:13:02.282Z,46.09
2022-11-25T02:14:03.212Z,51.27
2022-11-25T02:15:02.270Z,47.07
2022-11-25T02:16:02.345Z,54.88
2022-11-25T02:17:02.364Z,50.22
2022-11-25T02:18:02.257Z,47.34
2022-11-25T02:19:02.280Z,45.46
2022-11-25T02:20:02.259Z,49.40
2022-11-25T02:21:02.262Z,43.32
2022-11-25T02:22:02.231Z,44.54
2022-11-25T02:23:02.239Z,50.50
2022-11-25T02:24:02.212Z,44.26
2022-11-25T02:25:02.199Z,43.62
2022-11-25T02:26:02.188Z,48.28
2022-11-25T02:27:02.214Z,47.17
2022-11-25T02:28:02.204Z,46.10
2022-11-25T02:29:02.168Z,48.58
2022-11-25T02:30:02.184Z,43.26
2022-11-25T02:31:02.183Z,43.53
2022-11-25T02:32:02.216Z,49.77
2022-11-25T02:33:02.139Z,42.90
2022-11-25T02:34:02.145Z,43.81
2022-11-25T02:35:02.116Z,47.57
2022-11-25T02:36:02.166Z,49.65
2022-11-25T02:37:02.111Z,45.37
2022-11-25T02:38:34.044Z,44.87
2022-11-25T02:39:02.105Z,62.77
2022-11-25T02:40:02.127Z,48.64
2022-11-25T02:41:02.070Z,50.60
2022-11-25T02:42:02.084Z,43.46
2022-11-25T02:43:02.066Z,51.05
2022-11-25T02:44:02.094Z,47.97
2022-11-25T02:45:02.076Z,48.54
2022-11-25T02:46:02.154Z,45.25
2022-11-25T02:47:02.060Z,50.99
2022-11-25T02:48:02.021Z,45.28
2022-11-25T02:49:10.226Z,44.16
2022-11-25T02:50:04.003Z,54.21
2022-11-25T02:51:02.023Z,44.47
2022-11-25T02:52:02.022Z,48.58
2022-11-25T02:53:01.994Z,42.72
2022-11-25T02:54:01.989Z,49.01
2022-11-25T02:55:02.003Z,44.53
2022-11-25T02:56:01.984Z,43.92
2022-11-25T02:57:01.939Z,44.40
2022-11-25T02:58:01.935Z,44.63
2022-11-25T02:59:01.955Z,50.90
2022-11-25T03:00:01.964Z,59.04
2022-11-25T03:01:01.972Z,55.29
2022-11-25T03:02:01.947Z,51.78
2022-11-25T03:03:01.914Z,44.98
2022-11-25T03:04:01.911Z,48.03
2022-11-25T03:05:01.942Z,43.50
2022-11-25T03:06:01.875Z,50.73
2022-11-25T03:07:01.914Z,43.34
2022-11-25T03:08:01.865Z,43.58
2022-11-25T03:09:01.885Z,43.38
2022-11-25T03:10:01.878Z,42.79
2022-11-25T03:11:01.839Z,44.92
2022-11-25T03:12:01.829Z,54.86
2022-11-25T03:13:01.831Z,48.42
2022-11-25T03:14:01.843Z,46.48
2022-11-25T03:15:01.805Z,54.14
2022-11-25T03:16:01.821Z,50.69
2022-11-25T03:17:01.836Z,64.49
2022-11-25T03:18:01.776Z,52.01
2022-11-25T03:19:01.765Z,50.49
2022-11-25T03:20:01.786Z,44.14
2022-11-25T03:21:01.763Z,51.04
2022-11-25T03:22:01.767Z,51.44
2022-11-25T03:23:01.818Z,50.84
2022-11-25T03:24:01.738Z,49.46
2022-11-25T03:25:01.757Z,49.25
2022-11-25T03:26:01.711Z,50.53
2022-11-25T03:27:01.731Z,50.80
2022-11-25T03:28:01.709Z,52.73
2022-11-25T03:29:01.711Z,45.18
2022-11-25T03:30:01.777Z,55.53
2022-11-25T03:31:01.678Z,50.85
2022-11-25T03:32:04.275Z,50.95
2022-11-25T03:33:03.674Z,45.05
2022-11-25T03:34:01.677Z,55.53
2022-11-25T03:35:01.675Z,51.15
2022-11-25T03:36:01.639Z,50.72
2022-11-25T03:37:01.686Z,48.07
2022-11-25T03:38:01.639Z,43.20
2022-11-25T03:39:01.651Z,51.68
2022-11-25T03:40:01.619Z,59.52
2022-11-25T03:41:01.615Z,53.10
2022-11-25T03:42:01.618Z,56.40
2022-11-25T03:43:01.636Z,52.95
2022-11-25T03:44:01.583Z,56.95
2022-11-25T03:45:01.586Z,45.92
2022-11-25T03:46:01.737Z,55.87
2022-11-25T03:47:01.578Z,56.12
2022-11-25T04:04:10.748Z,55.39
2022-11-25T04:05:11.908Z,56.13
2022-11-25T04:06:43.766Z,53.34
2022-11-25T04:07:11.891Z,58.43
2022-11-25T04:08:44.817Z,57.98
2022-11-25T04:09:11.844Z,62.19
2022-11-25T04:10:11.831Z,64.27
2022-11-25T04:11:11.824Z,58.76
2022-11-25T04:12:11.814Z,49.85
2022-11-25T04:13:11.847Z,58.31
2022-11-25T04:14:11.813Z,57.74
2022-11-25T04:15:11.801Z,59.36
2022-11-25T04:16:11.809Z,52.16
2022-11-25T04:17:11.876Z,66.12
2022-11-25T04:18:11.804Z,59.52
2022-11-25T04:19:11.800Z,64.76
2022-11-25T04:20:11.772Z,60.13
2022-11-25T04:21:11.756Z,57.79
2022-11-25T04:22:11.760Z,61.10
2022-11-25T04:23:11.746Z,53.91
2022-11-25T04:24:11.757Z,64.02
2022-11-25T04:25:11.746Z,62.90
2022-11-25T04:26:11.723Z,61.61
2022-11-25T04:27:11.698Z,60.03
2022-11-25T04:28:12.398Z,63.53
2022-11-25T04:29:11.691Z,67.20
2022-11-25T04:30:11.695Z,63.53
2022-11-25T04:31:11.782Z,61.46
2022-11-25T04:32:11.655Z,56.20
2022-11-25T04:33:11.669Z,61.76
2022-11-25T04:34:11.644Z,63.56
2022-11-25T04:35:11.632Z,65.77
2022-11-25T04:36:11.651Z,66.29
2022-11-25T04:37:11.626Z,69.34
2022-11-25T04:38:11.721Z,65.68
2022-11-25T04:39:11.658Z,62.20
2022-11-25T04:40:11.603Z,67.37
2022-11-25T04:41:11.636Z,67.08
2022-11-25T04:42:11.619Z,64.22
2022-11-25T04:43:11.595Z,67.02
2022-11-25T04:44:11.601Z,68.12
2022-11-25T04:45:22.964Z,64.23
2022-11-25T04:46:14.592Z,61.00
2022-11-25T04:47:12.646Z,68.09
2022-11-25T04:48:11.695Z,65.97
2022-11-25T04:49:11.542Z,63.00
2022-11-25T04:50:11.551Z,65.58
2022-11-25T04:51:11.557Z,61.00
2022-11-25T04:52:11.514Z,62.95
2022-11-25T04:53:11.509Z,62.83
2022-11-25T04:54:17.183Z,56.47
2022-11-25T04:55:13.510Z,60.91
2022-11-25T04:56:11.518Z,70.94
2022-11-25T04:57:11.470Z,59.32
2022-11-25T04:58:11.659Z,54.39
2022-11-25T04:59:11.463Z,58.84
2022-11-25T05:00:11.438Z,63.17
2022-11-25T05:01:11.527Z,63.26
2022-11-25T05:02:11.546Z,62.32
2022-11-25T05:03:11.424Z,58.96
2022-11-25T05:04:11.415Z,63.04
2022-11-25T05:05:11.437Z,64.45
2022-11-25T05:06:11.415Z,59.23
2022-11-25T05:07:11.432Z,63.91
2022-11-25T05:08:11.526Z,62.58
2022-11-25T05:09:11.375Z,65.07
2022-11-25T05:10:11.414Z,61.44
2022-11-25T05:11:11.362Z,71.88
2022-11-25T05:12:11.346Z,65.45
2022-11-25T05:13:11.414Z,62.09
2022-11-25T05:14:11.369Z,49.67
2022-11-25T05:15:11.325Z,69.65
2022-11-25T05:16:11.428Z,64.79
2022-11-25T05:17:11.342Z,57.18
2022-11-25T05:18:11.600Z,68.48
2022-11-25T05:19:11.381Z,60.85
2022-11-25T05:20:11.304Z,68.65
2022-11-25T05:21:11.287Z,68.15
2022-11-25T05:22:11.301Z,60.69
2022-11-25T05:23:11.291Z,68.35
2022-11-25T05:24:11.280Z,65.20
2022-11-25T05:25:11.365Z,64.49
2022-11-25T05:26:11.256Z,67.24
2022-11-25T05:27:11.279Z,65.90
2022-11-25T05:28:11.239Z,67.44
2022-11-25T05:29:11.216Z,69.04
2022-11-25T05:30:11.215Z,64.25
2022-11-25T05:31:11.295Z,64.44
2022-11-25T05:32:11.262Z,62.55
2022-11-25T05:33:11.216Z,65.53
2022-11-25T05:34:11.204Z,66.70
2022-11-25T05:35:11.187Z,70.23
2022-11-25T05:36:11.208Z,69.17
2022-11-25T05:37:11.156Z,70.94
2022-11-25T05:38:11.178Z,70.25
2022-11-25T05:39:11.169Z,70.35
2022-11-25T05:40:11.141Z,71.56
2022-11-25T05:41:11.197Z,68.69
2022-11-25T05:42:11.131Z,62.21
2022-11-25T05:43:11.121Z,73.20
2022-11-25T05:44:11.123Z,65.90
2022-11-25T05:45:11.162Z,70.69
2022-11-25T05:46:11.149Z,68.95
2022-11-25T05:47:11.111Z,68.95
2022-11-25T05:48:11.083Z,65.25
2022-11-25T05:49:11.084Z,63.91
2022-11-25T05:50:11.113Z,68.84
2022-11-25T05:51:11.990Z,72.42
2022-11-25T05:52:43.013Z,69.26
2022-11-25T05:53:42.944Z,69.51
2022-11-25T05:54:43.059Z,64.83
2022-11-25T05:55:43.027Z,68.88
2022-11-25T05:56:43.073Z,69.75
2022-11-25T05:57:42.977Z,70.10
2022-11-25T05:58:11.122Z,72.12
2022-11-25T06:02:26.701Z,70.31
2022-11-25T06:03:26.618Z,73.14
2022-11-25T06:04:52.651Z,68.67
2022-11-25T06:05:52.595Z,60.36
2022-11-25T06:06:52.618Z,62.38
2022-11-25T06:07:52.675Z,66.40
2022-11-25T06:08:20.664Z,67.99
2022-11-25T06:09:52.609Z,70.19
2022-11-25T06:10:20.643Z,71.82
2022-11-25T06:11:20.713Z,70.67
2022-11-25T06:12:20.633Z,60.46
2022-11-25T06:13:20.695Z,68.60
2022-11-25T06:14:20.614Z,73.07
2022-11-25T06:15:20.631Z,70.59
2022-11-25T06:16:20.626Z,72.80
2022-11-25T06:17:20.611Z,70.41
2022-11-25T06:18:20.626Z,71.18
2022-11-25T06:19:20.607Z,71.58
2022-11-25T06:20:20.566Z,72.65
2022-11-25T06:21:20.571Z,69.58
2022-11-25T06:22:20.561Z,70.29
2022-11-25T06:23:20.557Z,70.03
2022-11-25T06:24:20.549Z,72.07
2022-11-25T06:25:20.591Z,74.20
2022-11-25T06:26:20.516Z,70.80
2022-11-25T06:27:20.527Z,68.73
2022-11-25T06:28:20.505Z,72.10
2022-11-25T06:29:20.527Z,72.20
2022-11-25T06:30:20.594Z,72.84
2022-11-25T06:31:20.553Z,72.99
2022-11-25T06:32:20.493Z,69.44
2022-11-25T06:33:20.480Z,71.40
2022-11-25T06:34:20.471Z,74.19
2022-11-25T06:35:20.478Z,73.32
2022-11-25T06:36:20.474Z,73.10
2022-11-25T06:37:20.448Z,71.76
2022-11-25T06:38:20.434Z,69.24
2022-11-25T06:39:20.437Z,72.35
2022-11-25T06:40:20.471Z,70.88
2022-11-25T06:41:20.476Z,69.76
2022-11-25T06:42:20.507Z,70.69
2022-11-25T06:43:20.391Z,69.99
2022-11-25T06:44:20.446Z,66.37
2022-11-25T06:45:20.402Z,73.88
2022-11-25T06:46:24.767Z,67.63
2022-11-25T06:47:21.420Z,71.44
2022-11-25T06:48:20.411Z,70.46
2022-11-25T06:49:20.437Z,74.22
2022-11-25T06:50:20.409Z,73.12
2022-11-25T06:51:20.347Z,71.50
2022-11-25T06:52:20.500Z,74.48
2022-11-25T06:53:24.076Z,68.31
2022-11-25T06:54:21.348Z,71.89
2022-11-25T06:55:20.307Z,70.31
2022-11-25T06:56:20.339Z,71.41
2022-11-25T06:57:20.296Z,70.01
2022-11-25T06:58:35.436Z,69.52
2022-11-25T06:59:22.278Z,64.05
2022-11-25T07:00:20.267Z,69.30
2022-11-25T07:01:20.295Z,65.98
2022-11-25T07:02:20.320Z,67.55
2022-11-25T07:03:20.344Z,71.90
2022-11-25T07:04:20.277Z,70.34
2022-11-25T07:05:20.917Z,72.06
2022-11-25T07:06:20.260Z,61.37
2022-11-25T07:07:20.251Z,71.20
2022-11-25T07:08:20.217Z,66.41
2022-11-25T07:09:20.235Z,72.25
2022-11-25T07:10:20.230Z,69.00
2022-11-25T07:11:20.208Z,69.13
2022-11-25T07:12:20.197Z,71.44
2022-11-25T07:13:20.191Z,67.12
2022-11-25T07:14:20.167Z,64.85
2022-11-25T07:15:20.206Z,72.21
2022-11-25T07:16:20.236Z,64.68
2022-11-25T07:17:20.197Z,66.55
2022-11-25T07:18:20.212Z,71.40
2022-11-25T07:19:20.136Z,68.25
2022-11-25T07:20:20.143Z,62.36
2022-11-25T07:21:20.124Z,68.67
2022-11-25T07:22:20.115Z,71.55
2022-11-25T07:23:20.099Z,69.30
2022-11-25T07:24:20.083Z,71.51
2022-11-25T07:25:20.223Z,71.84
2022-11-25T07:26:20.091Z,65.69
2022-11-25T07:27:20.118Z,69.58
2022-11-25T07:28:20.065Z,65.08
2022-11-25T07:31:23.708Z,71.52
2022-11-25T07:32:22.569Z,69.01
2022-11-25T07:33:20.187Z,71.50
2022-11-25T07:34:20.181Z,70.81
2022-11-25T07:35:21.010Z,62.42
2022-11-25T07:36:20.061Z,67.93
2022-11-25T07:37:20.001Z,71.59
2022-11-25T07:38:19.996Z,67.17
2022-11-25T07:39:20.028Z,66.43
2022-11-25T07:40:19.971Z,71.05
2022-11-25T07:41:19.962Z,66.70
2022-11-25T07:42:19.966Z,62.62
2022-11-25T07:43:19.944Z,65.60
2022-11-25T07:44:19.972Z,69.60
2022-11-25T07:45:19.948Z,68.34
2022-11-25T07:46:26.276Z,67.85
2022-11-25T07:47:21.931Z,71.06
2022-11-25T07:48:20.922Z,69.58
2022-11-25T07:49:19.891Z,73.69
2022-11-25T07:50:19.887Z,66.64
2022-11-25T07:51:19.900Z,68.20
2022-11-25T07:52:19.905Z,70.48
2022-11-25T07:53:19.915Z,70.74
2022-11-25T07:54:19.866Z,65.17
2022-11-25T07:55:19.868Z,65.16
2022-11-25T07:56:19.851Z,67.30
2022-11-25T07:57:19.839Z,66.42
2022-11-25T07:58:19.852Z,70.04
2022-11-25T07:59:19.856Z,66.76
2022-11-25T08:00:19.838Z,69.48
2022-11-25T08:01:19.938Z,66.49
2022-11-25T08:02:19.856Z,62.81
2022-11-25T08:03:19.979Z,68.99
2022-11-25T08:04:21.023Z,65.06
2022-11-25T08:05:20.791Z,70.81
2022-11-25T08:06:19.822Z,71.58
2022-11-25T08:07:19.819Z,66.48
2022-11-25T08:08:19.772Z,68.67
2022-11-25T08:09:19.758Z,62.83
2022-11-25T08:10:19.755Z,70.04
2022-11-25T08:11:19.777Z,71.79
2022-11-25T08:12:19.767Z,64.39
2022-11-25T08:13:19.824Z,64.51
2022-11-25T08:14:19.731Z,68.43
2022-11-25T08:15:19.727Z,66.61
2022-11-25T08:16:19.761Z,68.29
2022-11-25T08:17:19.719Z,66.72
2022-11-25T08:18:19.697Z,70.90
2022-11-25T08:19:19.709Z,60.22
2022-11-25T08:20:19.688Z,66.38
2022-11-25T08:21:19.677Z,64.76
2022-11-25T08:22:19.701Z,66.12
2022-11-25T08:23:19.661Z,69.71
2022-11-25T08:24:19.696Z,64.17
2022-11-25T08:25:19.636Z,64.85
2022-11-25T08:26:19.650Z,70.25
2022-11-25T08:27:19.648Z,59.19
2022-11-25T08:28:19.615Z,73.84
2022-11-25T08:29:19.632Z,69.90
2022-11-25T08:30:19.622Z,71.37
2022-11-25T08:31:51.531Z,70.30
2022-11-25T08:32:19.592Z,53.16
2022-11-25T08:33:19.578Z,71.91
2022-11-25T08:34:19.575Z,68.49
2022-11-25T08:35:20.535Z,67.85
2022-11-25T08:36:19.577Z,69.89
2022-11-25T08:37:19.598Z,70.80
2022-11-25T08:38:20.389Z,70.35
2022-11-25T08:40:21.632Z,72.20
2022-11-25T08:41:19.528Z,68.55
2022-11-25T08:42:19.542Z,67.49
2022-11-25T08:43:22.789Z,70.41
2022-11-25T08:44:20.499Z,66.49
2022-11-25T08:45:19.518Z,71.32
2022-11-25T08:46:19.530Z,69.05
2022-11-25T08:47:19.483Z,71.97
2022-11-25T08:48:19.579Z,75.88
2022-11-25T08:49:20.026Z,72.07
2022-11-25T08:50:19.483Z,73.48
2022-11-25T08:51:20.034Z,66.97
2022-11-25T08:52:19.506Z,72.10
2022-11-25T08:53:19.462Z,72.15
2022-11-25T08:54:19.449Z,59.52
2022-11-25T08:55:19.451Z,71.15
2022-11-25T08:56:24.338Z,68.98
2022-11-25T08:57:21.442Z,69.06
2022-11-25T08:58:19.451Z,70.77
2022-11-25T08:59:19.378Z,64.64
2022-11-25T09:00:19.406Z,72.25
2022-11-25T09:01:20.440Z,67.67
2022-11-25T09:02:19.492Z,68.57
2022-11-25T09:03:19.412Z,69.54
2022-11-25T09:04:19.388Z,69.22
2022-11-25T09:05:19.378Z,68.01
2022-11-25T09:06:19.374Z,65.69
2022-11-25T09:07:19.381Z,68.27
2022-11-25T09:08:19.303Z,71.37
2022-11-25T09:09:19.296Z,62.05
2022-11-25T09:10:19.291Z,72.69
2022-11-25T09:11:19.338Z,68.67
2022-11-25T09:12:19.341Z,67.84
2022-11-25T09:13:19.365Z,67.46
2022-11-25T09:14:19.306Z,70.02
2022-11-25T09:15:19.258Z,71.38
2022-11-25T09:16:19.423Z,68.35
2022-11-25T09:17:19.292Z,62.59
2022-11-25T09:18:19.254Z,65.41
2022-11-25T09:19:19.269Z,67.54
2022-11-25T09:20:19.245Z,62.07
2022-11-25T09:21:19.245Z,71.88
2022-11-25T09:22:19.223Z,60.10
2022-11-25T09:23:19.218Z,74.23
2022-11-25T09:24:19.195Z,66.93
2022-11-25T09:25:19.233Z,66.87
2022-11-25T09:26:19.182Z,66.96
2022-11-25T09:27:19.219Z,66.85
2022-11-25T09:28:19.182Z,69.09
2022-11-25T09:29:19.160Z,71.18
2022-11-25T09:30:19.174Z,68.08
2022-11-25T09:31:19.206Z,71.11
2022-11-25T09:32:20.029Z,70.10
2022-11-25T09:33:19.169Z,64.12
2022-11-25T09:34:19.184Z,68.23
2022-11-25T09:35:19.100Z,70.89
2022-11-25T09:36:19.138Z,69.43
2022-11-25T09:37:19.122Z,66.37
2022-11-25T09:38:19.085Z,67.33
2022-11-25T09:39:19.093Z,65.21
2022-11-25T09:40:19.071Z,67.60
2022-11-25T09:41:19.069Z,71.32
2022-11-25T09:42:19.118Z,72.59
2022-11-25T09:43:19.043Z,67.61
2022-11-25T09:44:19.065Z,66.97
2022-11-25T09:45:19.027Z,66.90
2022-11-25T09:46:20.087Z,70.33
2022-11-25T09:47:19.011Z,71.21
2022-11-25T09:48:19.033Z,64.67
2022-11-25T09:49:19.034Z,73.24
2022-11-25T09:50:18.993Z,71.46
2022-11-25T09:51:19.006Z,64.88
2022-11-25T09:52:18.981Z,72.31
2022-11-25T09:53:18.997Z,68.86
2022-11-25T09:54:18.993Z,66.66
2022-11-25T09:55:18.977Z,65.85
2022-11-25T09:56:19.031Z,68.26
2022-11-25T09:57:18.947Z,72.39
2022-11-25T09:58:18.944Z,71.66
2022-11-25T09:59:18.949Z,61.41
2022-11-25T10:00:18.943Z,72.61
2022-11-25T10:01:19.608Z,73.36
2022-11-25T10:02:19.026Z,67.04
2022-11-25T10:03:19.023Z,73.51
2022-11-25T10:04:18.884Z,65.88
2022-11-25T10:05:18.878Z,68.30
2022-11-25T10:06:18.974Z,62.40
2022-11-25T10:07:18.907Z,74.85
2022-11-25T10:08:19.650Z,69.72
2022-11-25T10:09:18.860Z,66.34
2022-11-25T10:10:18.963Z,73.00
2022-11-25T10:11:18.840Z,70.00
2022-11-25T10:12:18.879Z,66.19
2022-11-25T10:13:19.779Z,73.37
2022-11-25T10:14:18.835Z,71.65
2022-11-25T10:15:18.794Z,71.23
2022-11-25T10:16:18.839Z,64.63
2022-11-25T10:17:18.800Z,68.49
2022-11-25T10:18:18.782Z,69.97
2022-11-25T10:19:18.768Z,70.72
2022-11-25T10:20:18.814Z,68.25
2022-11-25T10:21:18.749Z,67.79
2022-11-25T10:22:18.769Z,65.12
2022-11-25T10:23:22.261Z,66.17
2022-11-25T10:24:19.736Z,71.22
2022-11-25T10:25:18.711Z,70.83
2022-11-25T10:26:18.749Z,67.44
2022-11-25T10:27:18.739Z,71.25
2022-11-25T10:28:18.696Z,69.86
2022-11-25T10:29:18.704Z,73.29
2022-11-25T10:30:18.937Z,72.76
2022-11-25T10:31:18.777Z,73.40
2022-11-25T10:32:18.655Z,71.80
2022-11-25T10:33:18.658Z,71.09
2022-11-25T10:34:18.654Z,72.29
2022-11-25T10:35:18.652Z,65.00
2022-11-25T10:36:18.665Z,69.16
2022-11-25T10:37:18.619Z,74.33
2022-11-25T10:38:19.303Z,65.92
2022-11-25T10:39:19.811Z,71.64
2022-11-25T10:40:18.676Z,66.68
2022-11-25T10:41:18.591Z,69.69
2022-11-25T10:42:18.630Z,69.37
2022-11-25T10:43:18.594Z,71.45
2022-11-25T10:44:18.697Z,69.95
2022-11-25T10:45:18.591Z,67.48
2022-11-25T10:46:18.640Z,71.19
2022-11-25T10:47:18.638Z,70.90
2022-11-25T10:48:18.558Z,73.05
2022-11-25T10:49:18.579Z,71.12
2022-11-25T10:50:18.579Z,73.78
2022-11-25T10:51:18.550Z,69.30
2022-11-25T10:52:18.531Z,73.35
2022-11-25T10:53:18.534Z,70.10
2022-11-25T10:54:22.692Z,74.85
2022-11-25T10:55:19.562Z,70.94
2022-11-25T10:56:18.592Z,69.76
2022-11-25T10:57:19.509Z,71.15
2022-11-25T10:58:18.507Z,70.09
2022-11-25T10:59:18.494Z,70.65
2022-11-25T11:00:18.477Z,67.34
2022-11-25T11:01:18.535Z,68.94
2022-11-25T11:02:18.541Z,70.89
2022-11-25T11:03:18.467Z,62.76
2022-11-25T11:04:18.446Z,73.53
2022-11-25T11:05:18.487Z,71.70
2022-11-25T11:06:18.463Z,69.47
2022-11-25T11:07:18.501Z,73.98
2022-11-25T11:08:18.448Z,76.84
2022-11-25T11:11:04.959Z,75.64
2022-11-25T11:12:04.953Z,68.15
2022-11-25T11:13:06.143Z,72.76
2022-11-25T11:14:06.747Z,73.30
2022-11-25T11:15:06.051Z,74.66
2022-11-25T11:16:06.100Z,72.41
2022-11-25T11:17:06.056Z,74.20
2022-11-25T11:18:06.045Z,71.58
2022-11-25T11:19:06.022Z,69.18
2022-11-25T11:20:06.031Z,68.99
2022-11-25T11:21:06.042Z,68.07
2022-11-25T11:22:05.990Z,70.54
2022-11-25T11:23:09.127Z,72.78
2022-11-25T11:24:06.998Z,72.24
2022-11-25T11:25:05.993Z,73.98
2022-11-25T11:26:06.065Z,72.67
2022-11-25T11:27:05.972Z,74.78
2022-11-25T11:28:06.004Z,74.14
2022-11-25T11:29:09.820Z,75.48
2022-11-25T11:30:07.970Z,75.72
2022-11-25T11:31:06.021Z,75.24
2022-11-25T11:32:05.952Z,70.49
2022-11-25T11:33:05.921Z,73.11
2022-11-25T11:34:05.920Z,68.87
2022-11-25T11:35:05.949Z,72.32
2022-11-25T11:36:05.883Z,72.72
2022-11-25T11:37:05.897Z,73.74
2022-11-25T11:38:05.882Z,73.71
2022-11-25T11:39:05.929Z,72.15
2022-11-25T11:40:05.901Z,70.86
2022-11-25T11:41:05.850Z,75.37
2022-11-25T11:42:05.894Z,71.61
2022-11-25T11:43:05.977Z,70.59
2022-11-25T11:44:06.729Z,72.16
2022-11-25T11:45:05.837Z,73.90
2022-11-25T11:46:05.830Z,74.91
2022-11-25T11:47:05.881Z,72.43
2022-11-25T11:48:05.821Z,73.39
2022-11-25T11:49:05.813Z,73.56
2022-11-25T11:50:05.854Z,73.65
2022-11-25T11:51:06.663Z,67.68
2022-11-25T11:52:05.756Z,73.33
2022-11-25T11:53:05.763Z,74.04
2022-11-25T11:54:05.829Z,74.81
2022-11-25T11:55:05.823Z,72.73
2022-11-25T11:56:33.520Z,71.23
2022-11-25T11:57:07.718Z,74.70
2022-11-25T11:58:05.708Z,71.67
2022-11-25T11:59:05.725Z,74.36
2022-11-25T12:00:05.762Z,70.97
2022-11-25T12:01:05.782Z,69.80
2022-11-25T12:02:05.798Z,73.10
2022-11-25T12:03:05.778Z,72.12
2022-11-25T12:04:05.789Z,66.36
2022-11-25T12:05:05.744Z,69.99
2022-11-25T12:06:05.695Z,73.11
2022-11-25T12:07:05.828Z,73.68
2022-11-25T12:08:05.655Z,69.42
2022-11-25T12:09:05.641Z,65.72
2022-11-25T12:10:05.626Z,70.64
2022-11-25T12:11:05.662Z,71.19
2022-11-25T12:12:05.618Z,75.29
2022-11-25T12:13:05.591Z,70.45
2022-11-25T12:14:05.593Z,70.23
2022-11-25T12:15:05.589Z,71.99
2022-11-25T12:16:05.654Z,73.12
2022-11-25T12:17:05.687Z,65.86
2022-11-25T12:18:05.614Z,73.51
2022-11-25T12:19:05.626Z,73.04
2022-11-25T12:20:05.525Z,74.24
2022-11-25T12:21:05.564Z,70.23
2022-11-25T12:22:05.685Z,74.67
2022-11-25T12:23:05.513Z,68.80
2022-11-25T12:24:05.552Z,66.32
2022-11-25T12:25:05.515Z,66.77
2022-11-25T12:26:05.502Z,73.28
2022-11-25T12:27:05.547Z,74.91
2022-11-25T12:28:05.501Z,70.88
2022-11-25T12:29:05.472Z,66.77
2022-11-25T12:30:05.467Z,71.29
2022-11-25T12:31:05.640Z,70.55
2022-11-25T12:32:06.532Z,70.33
2022-11-25T12:33:05.434Z,70.92
2022-11-25T12:34:05.483Z,72.50
2022-11-25T12:35:05.554Z,73.60
2022-11-25T12:36:05.430Z,63.70
2022-11-25T12:37:07.470Z,72.03
2022-11-25T12:38:06.401Z,75.33
2022-11-25T12:39:05.446Z,72.64
2022-11-25T12:40:08.172Z,72.83
2022-11-25T12:41:05.553Z,72.59
2022-11-25T12:42:06.047Z,74.54
2022-11-25T12:43:05.371Z,72.12
2022-11-25T12:44:05.378Z,73.04
2022-11-25T12:45:05.640Z,76.17
2022-11-25T12:46:05.388Z,72.02
2022-11-25T12:47:05.346Z,72.85
2022-11-25T12:48:05.543Z,73.41
2022-11-25T12:49:05.378Z,72.21
2022-11-25T12:50:05.332Z,69.09
2022-11-25T12:51:05.349Z,72.63
2022-11-25T12:52:05.291Z,74.67
2022-11-25T12:53:05.309Z,70.02
2022-11-25T12:54:05.327Z,74.35
2022-11-25T12:55:05.299Z,70.22
2022-11-25T12:56:05.268Z,73.11
2022-11-25T12:57:06.273Z,67.68
2022-11-25T12:58:05.249Z,74.11
2022-11-25T12:59:05.380Z,74.00
2022-11-25T13:00:39.156Z,71.11
2022-11-25T13:01:07.407Z,72.49
2022-11-25T13:02:05.391Z,71.42
2022-11-25T13:03:08.104Z,73.18
2022-11-25T13:04:07.234Z,73.85
2022-11-25T13:05:33.011Z,72.17
2022-11-25T13:06:07.204Z,69.09
2022-11-25T13:07:05.202Z,70.94
2022-11-25T13:08:06.164Z,72.37
2022-11-25T13:09:06.298Z,70.69
2022-11-25T13:10:05.176Z,76.02
2022-11-25T13:11:05.391Z,72.94
2022-11-25T13:12:05.519Z,71.74
2022-11-25T13:13:05.455Z,72.04
2022-11-25T13:14:05.445Z,71.89
2022-11-25T13:15:05.683Z,72.79
2022-11-25T13:16:05.597Z,73.94